createdAt,value
2023-03-01T00:02:24.159Z,78.46
2023-03-01T00:05:00.752Z,78.43
2023-03-01T00:07:37.322Z,78.54
2023-03-01T00:10:16.557Z,78.65
2023-03-01T00:12:53.207Z,78.73
2023-03-01T00:15:29.887Z,78.76
2023-03-01T00:18:06.411Z,78.80
2023-03-01T00:20:43.145Z,78.83
2023-03-01T00:23:19.403Z,78.77
2023-03-01T00:25:56.452Z,78.66
2023-03-01T00:28:33.428Z,78.70
2023-03-01T00:31:15.342Z,78.72
2023-03-01T00:33:51.039Z,78.70
2023-03-01T00:36:29.869Z,78.72
2023-03-01T00:39:08.441Z,78.80
2023-03-01T00:41:45.485Z,78.76
2023-03-01T00:44:21.894Z,78.71
2023-03-01T00:46:59.486Z,78.85
2023-03-01T00:49:36.256Z,79.14
2023-03-01T00:52:12.833Z,79.23
2023-03-01T00:54:49.562Z,79.33
2023-03-01T00:57:25.995Z,79.32
2023-03-01T01:00:02.756Z,79.28
2023-03-01T01:02:41.011Z,79.15
2023-03-01T01:05:22.107Z,79.29
2023-03-01T01:07:58.420Z,79.35
2023-03-01T01:10:37.082Z,79.40
2023-03-01T01:13:13.841Z,79.47
2023-03-01T01:15:50.266Z,79.49
2023-03-01T01:18:26.726Z,79.48
2023-03-01T01:21:07.645Z,79.50
2023-03-01T01:23:45.765Z,79.50
2023-03-01T01:26:25.736Z,79.55
2023-03-01T01:29:03.194Z,79.53
2023-03-01T01:31:42.217Z,79.42
2023-03-01T01:34:23.863Z,79.49
2023-03-01T01:37:03.906Z,79.40
2023-03-01T01:39:40.580Z,79.46
2023-03-01T01:42:21.835Z,79.49
2023-03-01T01:45:36.375Z,79.57
2023-03-01T01:48:20.957Z,79.60
2023-03-01T01:51:04.416Z,79.58
2023-03-01T01:53:44.578Z,79.70
2023-03-01T01:56:23.074Z,79.80
2023-03-01T01:59:00.342Z,79.79
2023-03-01T02:01:37.161Z,79.87
2023-03-01T02:04:13.877Z,79.89
2023-03-01T02:07:02.476Z,79.80
2023-03-01T02:09:40.211Z,79.81
2023-03-01T02:12:19.235Z,79.89
2023-03-01T02:14:55.670Z,80.10
2023-03-01T02:17:32.426Z,80.24
2023-03-01T02:20:25.585Z,80.10
2023-03-01T02:23:02.251Z,80.02
2023-03-01T02:25:54.829Z,80.04
2023-03-01T02:28:36.435Z,80.10
2023-03-01T02:31:34.961Z,80.09
2023-03-01T02:34:14.683Z,80.03
2023-03-01T02:36:57.121Z,79.92
2023-03-01T02:39:43.008Z,80.00
2023-03-01T02:42:27.298Z,80.05
2023-03-01T02:45:03.872Z,80.07
2023-03-01T02:47:40.309Z,80.04
2023-03-01T02:50:54.696Z,80.17
2023-03-01T02:53:47.354Z,80.08
2023-03-01T02:56:24.107Z,79.93
2023-03-01T02:59:02.131Z,79.97
2023-03-01T03:01:39.095Z,80.08
2023-03-01T03:04:22.134Z,80.09
2023-03-01T03:06:59.012Z,80.18
2023-03-01T03:09:35.927Z,80.28
2023-03-01T03:12:13.116Z,80.19
2023-03-01T03:14:50.159Z,80.14
2023-03-01T03:17:26.787Z,80.34
2023-03-01T03:20:04.104Z,80.37
2023-03-01T03:22:41.613Z,80.31
2023-03-01T03:25:18.689Z,80.27
2023-03-01T03:27:57.865Z,80.20
2023-03-01T03:30:35.956Z,80.22
2023-03-01T03:33:15.024Z,80.20
2023-03-01T03:35:54.013Z,80.24
2023-03-01T03:38:30.588Z,80.19
2023-03-01T03:41:12.173Z,80.18
2023-03-01T03:43:50.154Z,80.39
2023-03-01T03:46:27.313Z,80.38
2023-03-01T03:49:03.464Z,80.46
2023-03-01T03:51:40.192Z,80.52
2023-03-01T03:54:16.783Z,80.53
2023-03-01T03:56:53.181Z,80.53
2023-03-01T03:59:31.104Z,80.55
2023-03-01T04:02:09.950Z,80.55
2023-03-01T04:04:46.681Z,80.42
2023-03-01T04:07:23.054Z,80.37
2023-03-01T04:09:59.460Z,80.46
2023-03-01T04:12:36.269Z,80.48
2023-03-01T04:15:15.664Z,80.42
2023-03-01T04:17:53.982Z,80.37
2023-03-01T04:20:35.654Z,80.43
2023-03-01T04:23:17.115Z,80.42
2023-03-01T04:25:56.630Z,80.46
2023-03-01T04:28:36.012Z,80.47
2023-03-01T04:31:17.481Z,80.40
2023-03-01T04:33:57.103Z,80.34
2023-03-01T04:36:36.889Z,80.26
2023-03-01T04:39:14.283Z,80.20
2023-03-01T04:41:50.582Z,80.32
2023-03-01T04:44:27.016Z,80.50
2023-03-01T04:47:03.348Z,80.64
2023-03-01T04:49:42.434Z,80.66
2023-03-01T04:52:19.001Z,80.63
2023-03-01T04:54:55.238Z,80.53
2023-03-01T04:57:31.613Z,80.53
2023-03-01T05:00:22.047Z,80.46
2023-03-01T05:03:02.756Z,80.45
2023-03-01T05:05:41.906Z,80.59
2023-03-01T05:08:19.493Z,80.69
2023-03-01T05:10:57.790Z,80.67
2023-03-01T05:13:34.790Z,80.77
2023-03-01T05:16:13.486Z,80.71
2023-03-01T05:18:51.521Z,80.57
2023-03-01T05:21:28.534Z,80.56
2023-03-01T05:24:05.501Z,80.57
2023-03-01T05:26:42.574Z,80.60
2023-03-01T05:29:20.266Z,80.60
2023-03-01T05:31:59.213Z,80.58
2023-03-01T05:34:40.046Z,80.57
2023-03-01T05:37:16.471Z,80.50
2023-03-01T05:39:52.785Z,80.51
2023-03-01T05:42:29.032Z,80.50
2023-03-01T05:45:10.722Z,80.49
2023-03-01T05:47:49.563Z,80.41
2023-03-01T05:50:29.353Z,80.31
2023-03-01T05:53:09.034Z,80.28
2023-03-01T05:55:48.403Z,80.21
2023-03-01T05:58:25.643Z,80.29
2023-03-01T06:01:02.043Z,80.36
2023-03-01T06:03:38.524Z,80.40
2023-03-01T06:06:15.387Z,80.30
2023-03-01T06:08:52.850Z,80.28
2023-03-01T06:11:29.326Z,80.24
2023-03-01T06:14:07.523Z,80.55
2023-03-01T06:16:44.101Z,80.80
2023-03-01T06:19:20.399Z,80.89
2023-03-01T06:21:56.725Z,80.87
2023-03-01T06:24:34.283Z,80.77
2023-03-01T06:27:10.527Z,80.62
2023-03-01T06:29:46.827Z,80.33
2023-03-01T06:32:23.229Z,80.18
2023-03-01T06:35:00.463Z,79.92
2023-03-01T06:37:37.433Z,79.68
2023-03-01T06:40:17.437Z,79.56
2023-03-01T06:42:55.785Z,79.45
2023-03-01T06:45:33.434Z,79.23
2023-03-01T06:48:11.509Z,79.04
2023-03-01T06:50:48.112Z,78.82
2023-03-01T06:53:24.782Z,78.70
2023-03-01T06:56:02.992Z,78.57
2023-03-01T06:58:39.331Z,78.34
2023-03-01T07:01:16.269Z,78.26
2023-03-01T07:03:52.569Z,77.99
2023-03-01T07:06:29.819Z,77.84
2023-03-01T07:09:06.933Z,77.47
2023-03-01T07:11:43.740Z,76.24
2023-03-01T07:14:20.834Z,74.92
2023-03-01T07:16:57.633Z,74.21
2023-03-01T07:19:34.193Z,73.06
2023-03-01T07:22:11.752Z,72.28
2023-03-01T07:24:48.628Z,71.38
2023-03-01T07:27:24.871Z,71.04
2023-03-01T07:30:01.277Z,70.47
2023-03-01T07:32:37.649Z,69.45
2023-03-01T07:35:16.026Z,69.35
2023-03-01T07:37:52.376Z,67.68
2023-03-01T07:40:28.700Z,67.13
2023-03-01T07:43:05.468Z,65.80
2023-03-01T07:45:41.808Z,65.26
2023-03-01T07:48:18.315Z,64.01
2023-03-01T07:50:54.552Z,62.00
2023-03-01T07:53:32.451Z,61.10
2023-03-01T07:56:12.475Z,60.09
2023-03-01T07:58:51.197Z,59.68
2023-03-01T08:01:27.897Z,59.18
2023-03-01T08:04:08.126Z,58.44
2023-03-01T08:06:44.399Z,58.11
2023-03-01T08:09:20.778Z,57.92
2023-03-01T08:11:58.341Z,57.84
2023-03-01T08:14:35.189Z,56.92
2023-03-01T08:17:11.616Z,57.84
2023-03-01T08:19:48.197Z,57.47
2023-03-01T08:22:24.449Z,57.38
2023-03-01T08:25:00.816Z,56.19
2023-03-01T08:27:37.180Z,56.59
2023-03-01T08:30:17.671Z,56.17
2023-03-01T08:32:54.285Z,55.28
2023-03-01T08:35:30.699Z,54.44
2023-03-01T08:38:06.959Z,55.18
2023-03-01T08:40:43.452Z,54.68
2023-03-01T08:43:21.502Z,54.12
2023-03-01T08:45:59.323Z,54.04
2023-03-01T08:48:36.104Z,53.71
2023-03-01T08:51:21.676Z,52.79
2023-03-01T08:53:58.655Z,52.41
2023-03-01T08:56:35.683Z,52.05
2023-03-01T08:59:13.889Z,51.28
2023-03-01T09:01:50.757Z,51.22
2023-03-01T09:04:27.694Z,51.98
2023-03-01T09:07:04.481Z,52.33
2023-03-01T09:09:41.331Z,52.25
2023-03-01T09:12:18.076Z,51.70
2023-03-01T09:14:54.549Z,52.15
2023-03-01T09:17:31.248Z,52.50
2023-03-01T09:20:09.637Z,53.28
2023-03-01T09:22:46.168Z,52.95
2023-03-01T09:25:22.503Z,51.65
2023-03-01T09:28:00.005Z,51.89
2023-03-01T09:30:36.787Z,51.68
2023-03-01T09:33:15.620Z,51.93
2023-03-01T09:35:52.046Z,50.61
2023-03-01T09:38:29.277Z,51.18
2023-03-01T09:41:11.637Z,51.27
2023-03-01T09:43:56.483Z,51.09
2023-03-01T09:46:38.703Z,51.25
2023-03-01T09:49:20.799Z,52.27
2023-03-01T09:52:11.871Z,51.75
2023-03-01T09:54:48.553Z,52.21
2023-03-01T09:57:44.881Z,52.00
2023-03-01T10:00:48.799Z,50.70
2023-03-01T10:03:38.917Z,51.67
2023-03-01T10:06:34.573Z,50.85
2023-03-01T10:09:18.813Z,51.21
2023-03-01T10:11:59.058Z,52.55
2023-03-01T10:14:43.201Z,52.51
2023-03-01T10:17:30.902Z,51.85
2023-03-01T10:20:28.459Z,50.74
2023-03-01T10:23:05.151Z,50.64
2023-03-01T10:26:07.845Z,51.30
2023-03-01T10:29:03.513Z,51.27
2023-03-01T10:31:49.164Z,51.54
2023-03-01T10:34:33.382Z,51.77
2023-03-01T10:37:22.046Z,52.33
2023-03-01T10:40:10.004Z,52.48
2023-03-01T10:42:53.308Z,52.49
2023-03-01T10:45:41.607Z,52.87
2023-03-01T10:48:25.476Z,53.44
2023-03-01T10:51:21.287Z,54.10
2023-03-01T10:53:57.846Z,55.18
2023-03-01T10:56:50.603Z,55.86
2023-03-01T10:59:35.353Z,56.93
2023-03-01T11:02:30.196Z,57.10
2023-03-01T11:05:24.754Z,56.76
2023-03-01T11:08:04.248Z,57.60
2023-03-01T11:10:41.976Z,57.36
2023-03-01T11:13:23.103Z,56.77
2023-03-01T11:16:12.595Z,56.62
2023-03-01T11:19:00.621Z,56.78
2023-03-01T11:21:41.770Z,56.86
2023-03-01T11:24:21.712Z,55.93
2023-03-01T11:27:02.085Z,56.23
2023-03-01T11:29:49.229Z,55.86
2023-03-01T11:32:30.533Z,56.07
2023-03-01T11:35:17.474Z,55.98
2023-03-01T11:38:15.106Z,55.24
2023-03-01T11:41:00.298Z,55.29
2023-03-01T11:43:51.185Z,54.96
2023-03-01T11:47:23.967Z,54.57
2023-03-01T11:50:22.541Z,54.80
2023-03-01T11:53:33.733Z,55.47
2023-03-01T11:56:31.096Z,55.02
2023-03-01T11:59:51.487Z,54.87
2023-03-01T12:03:26.867Z,54.32
2023-03-01T12:06:37.151Z,53.78
2023-03-01T12:10:10.466Z,53.55
2023-03-01T12:13:24.747Z,53.78
2023-03-01T12:16:42.991Z,53.00
2023-03-01T12:19:46.447Z,51.56
2023-03-01T12:22:41.670Z,52.21
2023-03-01T12:25:44.011Z,53.40
2023-03-01T12:29:02.608Z,53.88
2023-03-01T12:32:03.210Z,53.79
2023-03-01T12:35:18.672Z,53.83
2023-03-01T12:38:09.818Z,53.10
2023-03-01T12:41:36.470Z,53.50
2023-03-01T12:44:50.971Z,52.33
2023-03-01T12:47:56.567Z,52.47
2023-03-01T12:50:44.753Z,52.56
2023-03-01T12:53:31.832Z,51.97
2023-03-01T12:56:15.621Z,52.57
2023-03-01T12:59:11.211Z,52.67
2023-03-01T13:01:59.282Z,52.12
2023-03-01T13:04:56.583Z,52.64
2023-03-01T13:07:43.666Z,51.52
2023-03-01T13:10:37.005Z,50.98
2023-03-01T13:13:26.848Z,50.75
2023-03-01T13:16:40.021Z,50.29
2023-03-01T13:19:22.165Z,50.65
2023-03-01T13:22:00.127Z,51.29
2023-03-01T13:24:42.427Z,51.27
2023-03-01T13:27:31.075Z,51.56
2023-03-01T13:30:33.202Z,52.33
2023-03-01T13:33:50.880Z,51.07
2023-03-01T13:37:20.906Z,51.21
2023-03-01T13:39:59.831Z,51.66
2023-03-01T13:42:59.252Z,50.63
2023-03-01T13:45:47.678Z,49.97
2023-03-01T13:48:31.598Z,49.39
2023-03-01T13:51:13.323Z,49.46
2023-03-01T13:53:54.064Z,49.35
2023-03-01T13:56:38.943Z,49.54
2023-03-01T13:59:23.458Z,49.32
2023-03-01T14:02:04.708Z,49.30
2023-03-01T14:04:41.723Z,49.36
2023-03-01T14:07:26.122Z,49.62
2023-03-01T14:10:08.482Z,49.84
2023-03-01T14:13:01.305Z,49.71
2023-03-01T14:15:52.981Z,49.20
2023-03-01T14:18:38.502Z,49.45
2023-03-01T14:21:19.829Z,49.21
2023-03-01T14:23:56.661Z,49.00
2023-03-01T14:26:34.246Z,48.79
2023-03-01T14:29:27.974Z,48.73
2023-03-01T14:32:23.354Z,48.92
2023-03-01T14:35:01.428Z,49.32
2023-03-01T14:37:39.070Z,48.60
2023-03-01T14:40:35.585Z,47.97
2023-03-01T14:43:26.937Z,47.45
2023-03-01T14:46:03.868Z,47.36
2023-03-01T14:48:40.295Z,47.77
2023-03-01T14:51:17.755Z,47.99
2023-03-01T14:53:56.064Z,47.17
2023-03-01T14:56:47.989Z,47.06
2023-03-01T14:59:25.733Z,46.63
2023-03-01T15:02:04.134Z,46.52
2023-03-01T15:04:41.983Z,46.32
2023-03-01T15:07:20.671Z,45.70
2023-03-01T15:09:57.328Z,46.15
2023-03-01T15:12:47.103Z,47.00
2023-03-01T15:15:43.337Z,47.70
2023-03-01T15:18:28.864Z,47.83
2023-03-01T15:21:21.984Z,48.36
2023-03-01T15:24:21.533Z,48.46
2023-03-01T15:27:07.930Z,48.82
2023-03-01T15:29:52.911Z,48.55
2023-03-01T15:32:35.077Z,49.02
2023-03-01T15:35:49.066Z,48.89
2023-03-01T15:38:57.839Z,49.19
2023-03-01T15:41:40.174Z,48.03
2023-03-01T15:44:43.333Z,48.06
2023-03-01T15:47:38.315Z,48.61
2023-03-01T15:50:27.055Z,48.83
2023-03-01T15:53:07.998Z,49.28
2023-03-01T15:55:45.084Z,49.50
2023-03-01T15:59:33.944Z,49.86
2023-03-01T16:02:16.132Z,50.38
2023-03-01T16:04:52.987Z,50.80
2023-03-01T16:07:29.734Z,51.12
2023-03-01T16:10:07.417Z,51.17
2023-03-01T16:12:43.737Z,51.63
2023-03-01T16:15:25.187Z,51.94
2023-03-01T16:18:01.879Z,52.35
2023-03-01T16:20:38.538Z,52.71
2023-03-01T16:23:16.661Z,53.55
2023-03-01T16:25:53.179Z,54.17
2023-03-01T16:28:30.336Z,54.55
2023-03-01T16:31:07.688Z,54.72
2023-03-01T16:33:50.421Z,55.33
2023-03-01T16:36:29.211Z,56.02
2023-03-01T16:39:07.725Z,56.36
2023-03-01T16:41:44.195Z,57.06
2023-03-01T16:44:21.496Z,58.15
2023-03-01T16:46:57.966Z,59.32
2023-03-01T16:49:34.382Z,60.01
2023-03-01T16:52:11.109Z,60.70
2023-03-01T16:54:47.497Z,61.11
2023-03-01T16:57:24.050Z,61.61
2023-03-01T17:00:01.156Z,61.99
2023-03-01T17:02:37.867Z,62.48
2023-03-01T17:05:15.588Z,62.87
2023-03-01T17:07:52.144Z,63.28
2023-03-01T17:10:28.984Z,64.06
2023-03-01T17:13:05.840Z,65.01
2023-03-01T17:15:45.258Z,65.75
2023-03-01T17:18:21.572Z,65.96
2023-03-01T17:20:58.294Z,66.20
2023-03-01T17:23:36.590Z,66.31
2023-03-01T17:26:13.804Z,66.29
2023-03-01T17:28:52.476Z,66.19
2023-03-01T17:31:29.961Z,66.30
2023-03-01T17:34:06.777Z,66.61
2023-03-01T17:36:44.910Z,66.76
2023-03-01T17:39:26.168Z,66.80
2023-03-01T17:42:03.474Z,66.67
2023-03-01T17:44:42.901Z,66.70
2023-03-01T17:47:20.173Z,66.73
2023-03-01T17:49:56.681Z,66.86
2023-03-01T17:52:33.436Z,67.17
2023-03-01T17:55:12.867Z,66.95
2023-03-01T17:57:49.320Z,66.93
2023-03-01T18:00:29.921Z,67.35
2023-03-01T18:03:07.883Z,67.55
2023-03-01T18:05:44.545Z,67.59
2023-03-01T18:08:21.032Z,67.48
2023-03-01T18:11:02.965Z,67.42
2023-03-01T18:13:38.405Z,67.58
2023-03-01T18:16:19.423Z,67.72
2023-03-01T18:19:00.367Z,67.81
2023-03-01T18:21:37.296Z,67.95
2023-03-01T18:24:14.279Z,68.13
2023-03-01T18:26:50.838Z,68.29
2023-03-01T18:29:28.522Z,68.60
2023-03-01T18:32:05.124Z,68.60
2023-03-01T18:34:42.245Z,68.61
2023-03-01T18:37:19.303Z,68.81
2023-03-01T18:39:58.636Z,68.95
2023-03-01T18:42:34.862Z,69.08
2023-03-01T18:45:17.161Z,69.33
2023-03-01T18:47:52.070Z,69.50
2023-03-01T18:50:29.608Z,69.48
2023-03-01T18:53:06.118Z,69.72
2023-03-01T18:55:44.176Z,69.92
2023-03-01T18:58:20.516Z,70.18
2023-03-01T19:00:57.006Z,70.41
2023-03-01T19:03:34.611Z,70.61
2023-03-01T19:06:12.346Z,70.87
2023-03-01T19:08:51.332Z,71.00
2023-03-01T19:11:31.136Z,71.08
2023-03-01T19:14:08.606Z,71.29
2023-03-01T19:17:00.602Z,71.65
2023-03-01T19:19:37.409Z,72.15
2023-03-01T19:22:13.890Z,72.47
2023-03-01T19:24:50.957Z,72.87
2023-03-01T19:27:27.371Z,72.91
2023-03-01T19:30:04.064Z,72.99
2023-03-01T19:32:40.848Z,73.10
2023-03-01T19:35:31.268Z,73.20
2023-03-01T19:38:08.085Z,73.35
2023-03-01T19:40:45.074Z,73.53
2023-03-01T19:43:22.528Z,73.64
2023-03-01T19:46:00.281Z,73.91
2023-03-01T19:48:36.834Z,74.06
2023-03-01T19:51:13.925Z,74.10
2023-03-01T19:53:50.856Z,74.13
2023-03-01T19:56:27.550Z,74.27
2023-03-01T19:59:05.154Z,74.35
2023-03-01T20:01:42.501Z,74.51
2023-03-01T20:04:19.440Z,74.75
2023-03-01T20:06:56.268Z,74.97
2023-03-01T20:09:33.031Z,75.00
2023-03-01T20:12:10.818Z,75.02
2023-03-01T20:14:48.875Z,75.12
2023-03-01T20:17:26.103Z,75.25
2023-03-01T20:20:02.903Z,75.12
2023-03-01T20:22:40.010Z,75.11
2023-03-01T20:25:17.688Z,75.27
2023-03-01T20:27:54.414Z,75.41
2023-03-01T20:30:31.470Z,75.47
2023-03-01T20:33:08.059Z,75.44
2023-03-01T20:35:47.034Z,75.59
2023-03-01T20:38:27.418Z,75.72
2023-03-01T20:41:12.163Z,75.81
2023-03-01T20:43:55.054Z,76.01
2023-03-01T20:46:33.357Z,76.10
2023-03-01T20:49:11.233Z,76.12
2023-03-01T20:51:48.493Z,76.21
2023-03-01T20:55:25.141Z,76.28
2023-03-01T20:58:02.323Z,76.41
2023-03-01T21:00:39.731Z,76.63
2023-03-01T21:03:16.370Z,76.74
2023-03-01T21:05:55.977Z,76.82
2023-03-01T21:08:33.413Z,76.99
2023-03-01T21:11:10.918Z,76.97
2023-03-01T21:13:47.440Z,76.84
2023-03-01T21:16:25.299Z,76.87
2023-03-01T21:19:05.751Z,76.90
2023-03-01T21:21:42.328Z,77.04
2023-03-01T21:24:19.035Z,77.18
2023-03-01T21:26:55.464Z,77.21
2023-03-01T21:29:31.996Z,77.12
2023-03-01T21:32:10.289Z,77.19
2023-03-01T21:34:48.482Z,77.20
2023-03-01T21:37:28.157Z,77.34
2023-03-01T21:40:06.592Z,77.47
2023-03-01T21:42:44.565Z,77.48
2023-03-01T21:45:21.287Z,77.41
2023-03-01T21:47:58.097Z,77.38
2023-03-01T21:50:34.824Z,77.43
2023-03-01T21:53:11.290Z,77.44
2023-03-01T21:55:54.553Z,77.49
2023-03-01T21:58:31.710Z,77.49
2023-03-01T22:01:57.977Z,77.47
2023-03-01T22:04:34.514Z,77.52
2023-03-01T22:07:11.603Z,77.59
2023-03-01T22:09:47.898Z,77.51
2023-03-01T22:12:24.571Z,77.49
2023-03-01T22:15:01.770Z,77.47
2023-03-01T22:17:38.229Z,77.50
2023-03-01T22:20:17.618Z,77.58
2023-03-01T22:22:53.937Z,77.50
2023-03-01T22:25:30.809Z,77.55
2023-03-01T22:28:07.447Z,77.67
2023-03-01T22:30:43.846Z,77.70
2023-03-01T22:33:20.141Z,77.72
2023-03-01T22:35:59.263Z,77.79
2023-03-01T22:38:35.557Z,77.80
2023-03-01T22:41:12.664Z,77.80
2023-03-01T22:43:49.263Z,77.83
2023-03-01T22:46:26.620Z,77.94
2023-03-01T22:49:03.124Z,77.92
2023-03-01T22:51:44.215Z,77.99
2023-03-01T22:54:22.479Z,77.87
2023-03-01T22:56:58.813Z,77.88
2023-03-01T22:59:35.236Z,77.82
2023-03-01T23:02:11.787Z,77.89
2023-03-01T23:04:48.800Z,77.86
2023-03-01T23:07:25.373Z,77.93
2023-03-01T23:10:02.847Z,78.00
2023-03-01T23:12:39.527Z,78.03
2023-03-01T23:15:18.079Z,78.11
2023-03-01T23:17:54.349Z,78.14
2023-03-01T23:20:31.485Z,78.07
2023-03-01T23:23:08.054Z,78.01
2023-03-01T23:25:53.336Z,78.00
2023-03-01T23:28:31.046Z,77.95
2023-03-01T23:31:11.088Z,78.00
2023-03-01T23:33:49.105Z,78.11
2023-03-01T23:36:28.887Z,78.14
2023-03-01T23:39:07.993Z,78.26
2023-03-01T23:41:44.415Z,78.38
2023-03-01T23:44:23.768Z,78.39
2023-03-01T23:47:00.461Z,78.28
2023-03-01T23:49:36.645Z,78.30
2023-03-01T23:52:15.351Z,78.30
2023-03-01T23:54:52.775Z,78.36
2023-03-01T23:57:29.420Z,78.37
